sensor_id;sensor_type;location;lat;lon;timestamp;pressure;altitude;pressure_sealevel;temperature;humidity
30724;BME280;17473;52.286;20.930;2023-08-07T00:02:13;98601.13;;;17.41;100.00
30724;BME280;17473;52.286;20.930;2023-08-07T00:04:40;98601.81;;;17.49;100.00
30724;BME280;17473;52.286;20.930;2023-08-07T00:07:08;98613.25;;;17.56;99.93
30724;BME280;17473;52.286;20.930;2023-08-07T00:09:35;98621.84;;;17.67;99.66
30724;BME280;17473;52.286;20.930;2023-08-07T00:12:02;98624.03;;;17.50;100.00
30724;BME280;17473;52.286;20.930;2023-08-07T00:14:30;98625.78;;;17.52;100.00
30724;BME280;17473;52.286;20.930;2023-08-07T00:16:57;98635.81;;;17.41;100.00
30724;BME280;17473;52.286;20.930;2023-08-07T00:19:24;98622.31;;;17.47;100.00
30724;BME280;17473;52.286;20.930;2023-08-07T00:21:51;98626.16;;;17.35;100.00
30724;BME280;17473;52.286;20.930;2023-08-07T00:24:19;98634.09;;;17.37;100.00
30724;BME280;17473;52.286;20.930;2023-08-07T00:26:46;98616.34;;;17.36;99.81
30724;BME280;17473;52.286;20.930;2023-08-07T00:29:13;98614.56;;;17.35;100.00
30724;BME280;17473;52.286;20.930;2023-08-07T00:31:40;98618.94;;;17.39;100.00
30724;BME280;17473;52.286;20.930;2023-08-07T00:34:07;98623.53;;;17.34;100.00
30724;BME280;17473;52.286;20.930;2023-08-07T00:36:36;98622.56;;;17.36;100.00
30724;BME280;17473;52.286;20.930;2023-08-07T00:39:03;98622.69;;;17.30;100.00
30724;BME280;17473;52.286;20.930;2023-08-07T00:41:30;98616.72;;;17.19;100.00
30724;BME280;17473;52.286;20.930;2023-08-07T00:43:58;98622.75;;;17.27;100.00
30724;BME280;17473;52.286;20.930;2023-08-07T00:46:25;98613.28;;;17.12;100.00
30724;BME280;17473;52.286;20.930;2023-08-07T00:48:53;98609.75;;;17.12;100.00
30724;BME280;17473;52.286;20.930;2023-08-07T00:51:21;98608.16;;;17.03;100.00
30724;BME280;17473;52.286;20.930;2023-08-07T00:53:49;98599.47;;;16.93;100.00
30724;BME280;17473;52.286;20.930;2023-08-07T00:56:17;98596.78;;;16.95;100.00
30724;BME280;17473;52.286;20.930;2023-08-07T00:58:44;98596.50;;;17.09;100.00
30724;BME280;17473;52.286;20.930;2023-08-07T01:01:12;98597.41;;;17.08;100.00
30724;BME280;17473;52.286;20.930;2023-08-07T01:03:39;98598.09;;;17.16;100.00
30724;BME280;17473;52.286;20.930;2023-08-07T01:06:06;98597.19;;;17.17;100.00
30724;BME280;17473;52.286;20.930;2023-08-07T01:08:34;98600.91;;;17.10;100.00
30724;BME280;17473;52.286;20.930;2023-08-07T01:11:46;98593.97;;;17.01;100.00
30724;BME280;17473;52.286;20.930;2023-08-07T01:14:53;98590.22;;;17.11;100.00
30724;BME280;17473;52.286;20.930;2023-08-07T01:17:23;98579.41;;;17.17;100.00
30724;BME280;17473;52.286;20.930;2023-08-07T01:19:51;98589.44;;;17.06;100.00
30724;BME280;17473;52.286;20.930;2023-08-07T01:22:21;98584.69;;;17.20;100.00
30724;BME280;17473;52.286;20.930;2023-08-07T01:24:50;98588.53;;;17.07;100.00
30724;BME280;17473;52.286;20.930;2023-08-07T01:35:33;98609.75;;;17.12;100.00
30724;BME280;17473;52.286;20.930;2023-08-07T01:38:02;98594.41;;;17.23;100.00
30724;BME280;17473;52.286;20.930;2023-08-07T01:40:30;98602.41;;;17.23;100.00
30724;BME280;17473;52.286;20.930;2023-08-07T01:42:57;98606.16;;;17.13;100.00
30724;BME280;17473;52.286;20.930;2023-08-07T01:45:26;98614.91;;;17.19;100.00
30724;BME280;17473;52.286;20.930;2023-08-07T01:47:54;98625.84;;;17.07;100.00
30724;BME280;17473;52.286;20.930;2023-08-07T01:50:23;98619.47;;;17.14;100.00
30724;BME280;17473;52.286;20.930;2023-08-07T01:52:51;98618.03;;;16.98;100.00
30724;BME280;17473;52.286;20.930;2023-08-07T01:55:19;98620.63;;;17.01;100.00
30724;BME280;17473;52.286;20.930;2023-08-07T01:57:47;98616.19;;;17.01;100.00
30724;BME280;17473;52.286;20.930;2023-08-07T02:00:14;98616.28;;;16.95;100.00
30724;BME280;17473;52.286;20.930;2023-08-07T02:02:41;98605.63;;;16.95;100.00
30724;BME280;17473;52.286;20.930;2023-08-07T02:05:08;98586.94;;;16.98;100.00
30724;BME280;17473;52.286;20.930;2023-08-07T02:07:36;98591.47;;;16.92;100.00
30724;BME280;17473;52.286;20.930;2023-08-07T02:10:03;98588.81;;;16.93;100.00
30724;BME280;17473;52.286;20.930;2023-08-07T02:12:30;98590.72;;;16.85;100.00
30724;BME280;17473;52.286;20.930;2023-08-07T02:15:01;98599.69;;;16.81;100.00
30724;BME280;17473;52.286;20.930;2023-08-07T02:17:28;98600.34;;;16.94;100.00
30724;BME280;17473;52.286;20.930;2023-08-07T02:19:57;98601.50;;;16.79;100.00
30724;BME280;17473;52.286;20.930;2023-08-07T02:22:25;98611.22;;;16.81;100.00
30724;BME280;17473;52.286;20.930;2023-08-07T02:24:52;98619.09;;;16.87;100.00
30724;BME280;17473;52.286;20.930;2023-08-07T02:27:19;98626.06;;;16.96;100.00
30724;BME280;17473;52.286;20.930;2023-08-07T02:29:46;98634.09;;;16.95;100.00
30724;BME280;17473;52.286;20.930;2023-08-07T02:32:13;98629.09;;;16.76;100.00
30724;BME280;17473;52.286;20.930;2023-08-07T02:34:40;98634.50;;;16.71;100.00
30724;BME280;17473;52.286;20.930;2023-08-07T02:37:07;98632.78;;;16.69;100.00
30724;BME280;17473;52.286;20.930;2023-08-07T02:39:34;98629.34;;;16.62;100.00
30724;BME280;17473;52.286;20.930;2023-08-07T02:42:02;98627.53;;;16.64;100.00
30724;BME280;17473;52.286;20.930;2023-08-07T02:44:30;98631.19;;;16.58;100.00
30724;BME280;17473;52.286;20.930;2023-08-07T02:46:57;98625.00;;;16.56;100.00
30724;BME280;17473;52.286;20.930;2023-08-07T02:49:24;98630.28;;;16.59;100.00
30724;BME280;17473;52.286;20.930;2023-08-07T02:51:51;98633.13;;;16.50;100.00
30724;BME280;17473;52.286;20.930;2023-08-07T02:54:19;98646.22;;;16.61;100.00
30724;BME280;17473;52.286;20.930;2023-08-07T02:56:46;98648.13;;;16.56;100.00
30724;BME280;17473;52.286;20.930;2023-08-07T02:59:13;98653.72;;;16.40;100.00
30724;BME280;17473;52.286;20.930;2023-08-07T03:01:40;98649.97;;;16.52;100.00
30724;BME280;17473;52.286;20.930;2023-08-07T03:04:07;98641.22;;;16.44;100.00
30724;BME280;17473;52.286;20.930;2023-08-07T03:06:34;98630.66;;;16.39;100.00
30724;BME280;17473;52.286;20.930;2023-08-07T03:09:02;98633.28;;;16.41;100.00
30724;BME280;17473;52.286;20.930;2023-08-07T03:11:29;98642.94;;;16.47;100.00
30724;BME280;17473;52.286;20.930;2023-08-07T03:13:56;98647.50;;;16.40;100.00
30724;BME280;17473;52.286;20.930;2023-08-07T03:16:23;98650.03;;;16.48;100.00
30724;BME280;17473;52.286;20.930;2023-08-07T03:18:50;98645.53;;;16.50;100.00
30724;BME280;17473;52.286;20.930;2023-08-07T03:21:18;98653.19;;;16.68;100.00
30724;BME280;17473;52.286;20.930;2023-08-07T03:23:45;98645.56;;;16.48;100.00
30724;BME280;17473;52.286;20.930;2023-08-07T03:26:13;98655.28;;;16.51;100.00
30724;BME280;17473;52.286;20.930;2023-08-07T03:28:43;98657.16;;;16.46;100.00
30724;BME280;17473;52.286;20.930;2023-08-07T03:31:13;98668.84;;;16.37;100.00
30724;BME280;17473;52.286;20.930;2023-08-07T03:33:40;98666.97;;;16.43;100.00
30724;BME280;17473;52.286;20.930;2023-08-07T03:36:07;98672.28;;;16.43;100.00
30724;BME280;17473;52.286;20.930;2023-08-07T03:38:34;98676.09;;;16.30;100.00
30724;BME280;17473;52.286;20.930;2023-08-07T03:41:02;98681.41;;;16.28;100.00
30724;BME280;17473;52.286;20.930;2023-08-07T03:43:29;98689.31;;;16.33;100.00
30724;BME280;17473;52.286;20.930;2023-08-07T03:45:57;98687.44;;;16.40;100.00
30724;BME280;17473;52.286;20.930;2023-08-07T03:48:29;98684.00;;;16.35;100.00
30724;BME280;17473;52.286;20.930;2023-08-07T03:51:06;98685.81;;;16.33;100.00
30724;BME280;17473;52.286;20.930;2023-08-07T03:53:35;98697.25;;;16.39;100.00
30724;BME280;17473;52.286;20.930;2023-08-07T03:56:02;98698.25;;;16.31;100.00
30724;BME280;17473;52.286;20.930;2023-08-07T03:58:30;98694.72;;;16.28;100.00
30724;BME280;17473;52.286;20.930;2023-08-07T04:00:57;98702.56;;;16.39;100.00
30724;BME280;17473;52.286;20.930;2023-08-07T04:03:24;98697.38;;;16.30;100.00
30724;BME280;17473;52.286;20.930;2023-08-07T04:05:54;98688.53;;;16.28;100.00
30724;BME280;17473;52.286;20.930;2023-08-07T04:08:22;98683.28;;;16.23;100.00
30724;BME280;17473;52.286;20.930;2023-08-07T04:11:04;98665.47;;;16.27;100.00
30724;BME280;17473;52.286;20.930;2023-08-07T04:13:32;98671.63;;;16.31;100.00
30724;BME280;17473;52.286;20.930;2023-08-07T04:15:59;98674.25;;;16.34;100.00
30724;BME280;17473;52.286;20.930;2023-08-07T04:18:28;98673.03;;;16.52;100.00
30724;BME280;17473;52.286;20.930;2023-08-07T04:20:56;98666.09;;;16.41;100.00
30724;BME280;17473;52.286;20.930;2023-08-07T04:23:24;98668.88;;;16.35;100.00
30724;BME280;17473;52.286;20.930;2023-08-07T04:25:53;98672.38;;;16.40;100.00
30724;BME280;17473;52.286;20.930;2023-08-07T04:28:20;98681.97;;;16.49;100.00
30724;BME280;17473;52.286;20.930;2023-08-07T04:30:51;98684.56;;;16.54;100.00
30724;BME280;17473;52.286;20.930;2023-08-07T04:33:20;98691.63;;;16.55;100.00
30724;BME280;17473;52.286;20.930;2023-08-07T04:35:47;98691.53;;;16.61;99.78
30724;BME280;17473;52.286;20.930;2023-08-07T04:38:15;98689.63;;;16.68;99.97
30724;BME280;17473;52.286;20.930;2023-08-07T04:40:47;98703.97;;;16.61;99.27
30724;BME280;17473;52.286;20.930;2023-08-07T04:43:16;98702.97;;;16.68;98.91
30724;BME280;17473;52.286;20.930;2023-08-07T04:45:43;98716.31;;;16.66;98.68
30724;BME280;17473;52.286;20.930;2023-08-07T04:48:13;98729.84;;;16.54;99.62
30724;BME280;17473;52.286;20.930;2023-08-07T04:50:41;98726.06;;;16.67;98.41
30724;BME280;17473;52.286;20.930;2023-08-07T04:53:08;98711.81;;;16.68;97.88
30724;BME280;17473;52.286;20.930;2023-08-07T04:55:36;98712.75;;;16.67;97.39
30724;BME280;17473;52.286;20.930;2023-08-07T04:58:03;98708.28;;;16.68;97.62
30724;BME280;17473;52.286;20.930;2023-08-07T05:00:30;98718.16;;;16.63;97.05
30724;BME280;17473;52.286;20.930;2023-08-07T05:02:57;98712.06;;;16.56;97.64
30724;BME280;17473;52.286;20.930;2023-08-07T05:05:25;98718.03;;;16.69;97.13
30724;BME280;17473;52.286;20.930;2023-08-07T05:07:52;98721.50;;;16.76;96.82
30724;BME280;17473;52.286;20.930;2023-08-07T05:10:19;98734.50;;;16.93;96.39
30724;BME280;17473;52.286;20.930;2023-08-07T05:12:47;98734.56;;;16.88;95.96
30724;BME280;17473;52.286;20.930;2023-08-07T05:15:14;98730.91;;;16.95;95.64
30724;BME280;17473;52.286;20.930;2023-08-07T05:17:41;98739.78;;;16.97;96.06
30724;BME280;17473;52.286;20.930;2023-08-07T05:20:09;98734.53;;;16.91;96.15
30724;BME280;17473;52.286;20.930;2023-08-07T05:22:36;98738.31;;;16.78;96.82
30724;BME280;17473;52.286;20.930;2023-08-07T05:25:04;98739.22;;;16.77;96.97
30724;BME280;17473;52.286;20.930;2023-08-07T05:27:32;98734.84;;;16.72;97.85
30724;BME280;17473;52.286;20.930;2023-08-07T05:29:59;98740.22;;;16.71;99.16
30724;BME280;17473;52.286;20.930;2023-08-07T05:32:26;98739.09;;;16.84;98.67
30724;BME280;17473;52.286;20.930;2023-08-07T05:34:55;98742.81;;;16.76;99.38
30724;BME280;17473;52.286;20.930;2023-08-07T05:37:22;98735.88;;;16.64;100.00
30724;BME280;17473;52.286;20.930;2023-08-07T05:39:49;98734.94;;;16.68;100.00
30724;BME280;17473;52.286;20.930;2023-08-07T05:42:16;98729.25;;;16.88;98.21
30724;BME280;17473;52.286;20.930;2023-08-07T05:44:44;98734.91;;;16.69;99.67
30724;BME280;17473;52.286;20.930;2023-08-07T05:47:11;98738.38;;;16.73;99.52
30724;BME280;17473;52.286;20.930;2023-08-07T05:49:38;98738.22;;;16.84;99.83
30724;BME280;17473;52.286;20.930;2023-08-07T05:52:05;98738.03;;;16.95;98.52
30724;BME280;17473;52.286;20.930;2023-08-07T05:54:33;98745.88;;;17.04;98.01
30724;BME280;17473;52.286;20.930;2023-08-07T05:57:00;98751.00;;;17.16;97.59
30724;BME280;17473;52.286;20.930;2023-08-07T05:59:27;98740.31;;;17.16;97.32
30724;BME280;17473;52.286;20.930;2023-08-07T06:01:54;98744.34;;;17.38;96.50
30724;BME280;17473;52.286;20.930;2023-08-07T06:04:25;98742.50;;;17.40;96.55
30724;BME280;17473;52.286;20.930;2023-08-07T06:06:53;98751.72;;;17.25;97.67
30724;BME280;17473;52.286;20.930;2023-08-07T06:09:20;98742.03;;;17.19;98.29
30724;BME280;17473;52.286;20.930;2023-08-07T06:11:48;98744.63;;;17.24;98.11
30724;BME280;17473;52.286;20.930;2023-08-07T06:14:16;98742.91;;;17.21;98.18
30724;BME280;17473;52.286;20.930;2023-08-07T06:16:43;98751.63;;;17.29;98.13
30724;BME280;17473;52.286;20.930;2023-08-07T06:19:10;98736.50;;;17.30;97.60
30724;BME280;17473;52.286;20.930;2023-08-07T06:21:51;98743.63;;;17.29;96.19
30724;BME280;17473;52.286;20.930;2023-08-07T06:24:18;98747.25;;;17.25;96.23
30724;BME280;17473;52.286;20.930;2023-08-07T06:26:45;98748.25;;;17.21;94.85
30724;BME280;17473;52.286;20.930;2023-08-07T06:29:12;98740.97;;;17.29;94.10
30724;BME280;17473;52.286;20.930;2023-08-07T06:31:39;98753.69;;;17.13;93.55
30724;BME280;17473;52.286;20.930;2023-08-07T06:34:07;98759.47;;;17.37;92.68
30724;BME280;17473;52.286;20.930;2023-08-07T06:36:34;98750.59;;;17.36;92.09
30724;BME280;17473;52.286;20.930;2023-08-07T06:39:01;98766.34;;;17.49;91.73
30724;BME280;17473;52.286;20.930;2023-08-07T06:41:29;98763.38;;;17.63;89.10
30724;BME280;17473;52.286;20.930;2023-08-07T06:43:56;98765.09;;;17.67;89.80
30724;BME280;17473;52.286;20.930;2023-08-07T06:46:23;98764.50;;;17.96;88.61
30724;BME280;17473;52.286;20.930;2023-08-07T06:48:53;98768.78;;;18.04;88.15
30724;BME280;17473;52.286;20.930;2023-08-07T06:51:21;98779.81;;;17.87;88.47
30724;BME280;17473;52.286;20.930;2023-08-07T06:53:48;98770.19;;;17.79;89.54
30724;BME280;17473;52.286;20.930;2023-08-07T06:56:15;98781.63;;;17.84;89.73
30724;BME280;17473;52.286;20.930;2023-08-07T06:58:42;98786.66;;;18.02;88.29
30724;BME280;17473;52.286;20.930;2023-08-07T07:01:09;98784.69;;;18.10;87.80
30724;BME280;17473;52.286;20.930;2023-08-07T07:03:36;98797.91;;;18.55;85.59
30724;BME280;17473;52.286;20.930;2023-08-07T07:06:04;98789.34;;;18.77;83.83
30724;BME280;17473;52.286;20.930;2023-08-07T07:08:31;98784.56;;;18.90;82.28
30724;BME280;17473;52.286;20.930;2023-08-07T07:10:58;98792.16;;;19.73;77.82
30724;BME280;17473;52.286;20.930;2023-08-07T07:13:25;98791.50;;;19.96;76.74
30724;BME280;17473;52.286;20.930;2023-08-07T07:15:54;98798.41;;;19.74;77.15
30724;BME280;17473;52.286;20.930;2023-08-07T07:18:22;98783.63;;;20.22;75.81
30724;BME280;17473;52.286;20.930;2023-08-07T07:20:57;98790.44;;;21.14;70.36
30724;BME280;17473;52.286;20.930;2023-08-07T07:23:26;98791.16;;;20.94;69.18
30724;BME280;17473;52.286;20.930;2023-08-07T07:25:53;98785.88;;;20.91;69.81
30724;BME280;17473;52.286;20.930;2023-08-07T07:28:20;98784.91;;;20.65;71.07
30724;BME280;17473;52.286;20.930;2023-08-07T07:30:49;98800.13;;;20.36;71.98
30724;BME280;17473;52.286;20.930;2023-08-07T07:33:17;98812.38;;;20.16;73.42
30724;BME280;17473;52.286;20.930;2023-08-07T07:35:44;98813.50;;;19.76;73.53
30724;BME280;17473;52.286;20.930;2023-08-07T07:38:11;98819.16;;;19.65;73.55
30724;BME280;17473;52.286;20.930;2023-08-07T07:40:38;98810.78;;;19.45;74.15
30724;BME280;17473;52.286;20.930;2023-08-07T07:43:06;98808.31;;;19.37;74.23
30724;BME280;17473;52.286;20.930;2023-08-07T07:45:33;98813.47;;;19.10;75.86
30724;BME280;17473;52.286;20.930;2023-08-07T07:48:04;98811.94;;;19.01;76.54
30724;BME280;17473;52.286;20.930;2023-08-07T07:50:33;98804.53;;;19.11;75.46
30724;BME280;17473;52.286;20.930;2023-08-07T07:53:00;98818.50;;;19.57;73.56
30724;BME280;17473;52.286;20.930;2023-08-07T07:55:27;98812.88;;;19.66;72.95
30724;BME280;17473;52.286;20.930;2023-08-07T07:57:54;98815.59;;;19.65;73.29
30724;BME280;17473;52.286;20.930;2023-08-07T08:00:22;98808.38;;;19.35;74.26
30724;BME280;17473;52.286;20.930;2023-08-07T08:02:53;98819.44;;;19.21;74.31
30724;BME280;17473;52.286;20.930;2023-08-07T08:05:21;98820.81;;;19.03;74.96
30724;BME280;17473;52.286;20.930;2023-08-07T08:07:48;98828.97;;;18.97;74.63
30724;BME280;17473;52.286;20.930;2023-08-07T08:10:15;98830.66;;;19.69;71.57
30724;BME280;17473;52.286;20.930;2023-08-07T08:12:43;98822.94;;;21.06;65.79
30724;BME280;17473;52.286;20.930;2023-08-07T08:15:10;98827.31;;;21.61;63.84
30724;BME280;17473;52.286;20.930;2023-08-07T08:17:37;98831.38;;;21.73;61.88
30724;BME280;17473;52.286;20.930;2023-08-07T08:20:07;98841.03;;;21.26;63.29
30724;BME280;17473;52.286;20.930;2023-08-07T08:22:34;98830.97;;;20.79;64.64
30724;BME280;17473;52.286;20.930;2023-08-07T08:25:02;98842.53;;;20.52;65.83
30724;BME280;17473;52.286;20.930;2023-08-07T08:27:31;98838.22;;;19.86;68.13
30724;BME280;17473;52.286;20.930;2023-08-07T08:29:58;98837.88;;;19.98;68.60
30724;BME280;17473;52.286;20.930;2023-08-07T08:32:25;98838.78;;;19.97;68.69
30724;BME280;17473;52.286;20.930;2023-08-07T08:34:53;98853.81;;;19.70;69.93
30724;BME280;17473;52.286;20.930;2023-08-07T08:37:20;98850.63;;;19.90;68.14
30724;BME280;17473;52.286;20.930;2023-08-07T08:39:47;98866.50;;;19.96;68.42
30724;BME280;17473;52.286;20.930;2023-08-07T08:42:15;98856.13;;;19.84;67.58
30724;BME280;17473;52.286;20.930;2023-08-07T08:44:56;98844.88;;;20.34;65.83
30724;BME280;17473;52.286;20.930;2023-08-07T08:47:26;98848.19;;;20.99;63.51
30724;BME280;17473;52.286;20.930;2023-08-07T08:50:07;98845.25;;;21.07;62.54
30724;BME280;17473;52.286;20.930;2023-08-07T08:52:37;98847.72;;;21.13;61.74
30724;BME280;17473;52.286;20.930;2023-08-07T08:55:05;98837.97;;;21.10;62.12
30724;BME280;17473;52.286;20.930;2023-08-07T08:57:33;98839.13;;;21.03;62.09
30724;BME280;17473;52.286;20.930;2023-08-07T09:00:02;98837.81;;;21.15;61.97
30724;BME280;17473;52.286;20.930;2023-08-07T09:02:34;98841.44;;;20.87;62.42
30724;BME280;17473;52.286;20.930;2023-08-07T09:05:02;98851.16;;;20.91;62.23
30724;BME280;17473;52.286;20.930;2023-08-07T09:07:29;98859.91;;;20.97;63.12
30724;BME280;17473;52.286;20.930;2023-08-07T09:09:57;98873.38;;;21.49;61.67
30724;BME280;17473;52.286;20.930;2023-08-07T09:12:27;98873.13;;;22.55;58.12
30724;BME280;17473;52.286;20.930;2023-08-07T09:14:59;98865.44;;;22.67;57.13
30724;BME280;17473;52.286;20.930;2023-08-07T09:17:29;98866.88;;;22.76;56.56
30724;BME280;17473;52.286;20.930;2023-08-07T09:19:58;98879.09;;;22.85;55.51
30724;BME280;17473;52.286;20.930;2023-08-07T09:22:26;98880.41;;;23.19;54.73
30724;BME280;17473;52.286;20.930;2023-08-07T09:24:53;98895.09;;;23.96;52.84
30724;BME280;17473;52.286;20.930;2023-08-07T09:27:20;98880.38;;;24.43;50.58
30724;BME280;17473;52.286;20.930;2023-08-07T09:29:48;98888.53;;;24.61;48.55
30724;BME280;17473;52.286;20.930;2023-08-07T09:32:15;98899.00;;;24.68;48.77
30724;BME280;17473;52.286;20.930;2023-08-07T09:34:43;98905.97;;;24.73;48.74
30724;BME280;17473;52.286;20.930;2023-08-07T09:37:10;98919.69;;;24.28;48.46
30724;BME280;17473;52.286;20.930;2023-08-07T09:39:37;98923.53;;;24.03;48.36
30724;BME280;17473;52.286;20.930;2023-08-07T09:42:05;98933.81;;;23.94;49.00
30724;BME280;17473;52.286;20.930;2023-08-07T09:44:39;98939.81;;;23.37;49.45
30724;BME280;17473;52.286;20.930;2023-08-07T09:47:13;98951.59;;;23.10;49.92
30724;BME280;17473;52.286;20.930;2023-08-07T09:49:41;98947.06;;;23.35;49.67
30724;BME280;17473;52.286;20.930;2023-08-07T09:52:11;98950.56;;;23.14;50.50
30724;BME280;17473;52.286;20.930;2023-08-07T09:54:42;98949.19;;;23.04;50.81
30724;BME280;17473;52.286;20.930;2023-08-07T09:57:09;98951.94;;;23.03;49.20
30724;BME280;17473;52.286;20.930;2023-08-07T09:59:36;98945.28;;;23.35;48.32
30724;BME280;17473;52.286;20.930;2023-08-07T10:02:04;98947.50;;;23.67;47.76
30724;BME280;17473;52.286;20.930;2023-08-07T10:04:32;98947.69;;;23.84;47.76
30724;BME280;17473;52.286;20.930;2023-08-07T10:07:01;98944.09;;;24.25;47.28
30724;BME280;17473;52.286;20.930;2023-08-07T10:09:29;98948.44;;;24.29;47.58
30724;BME280;17473;52.286;20.930;2023-08-07T10:11:59;98939.53;;;23.86;47.41
30724;BME280;17473;52.286;20.930;2023-08-07T10:14:26;98944.69;;;24.32;46.73
30724;BME280;17473;52.286;20.930;2023-08-07T10:16:54;98946.31;;;24.76;45.44
30724;BME280;17473;52.286;20.930;2023-08-07T10:19:21;98943.91;;;24.89;45.97
30724;BME280;17473;52.286;20.930;2023-08-07T10:21:49;98944.69;;;24.72;45.29
30724;BME280;17473;52.286;20.930;2023-08-07T10:24:17;98947.91;;;24.40;45.43
30724;BME280;17473;52.286;20.930;2023-08-07T10:26:46;98947.09;;;24.19;45.96
30724;BME280;17473;52.286;20.930;2023-08-07T10:29:18;98946.34;;;23.95;46.55
30724;BME280;17473;52.286;20.930;2023-08-07T10:31:46;98945.22;;;24.40;46.17
30724;BME280;17473;52.286;20.930;2023-08-07T10:34:16;98940.34;;;24.29;46.27
30724;BME280;17473;52.286;20.930;2023-08-07T10:36:44;98944.50;;;24.36;46.62
30724;BME280;17473;52.286;20.930;2023-08-07T10:39:12;98941.56;;;24.22;46.41
30724;BME280;17473;52.286;20.930;2023-08-07T10:41:46;98945.00;;;24.26;45.94
30724;BME280;17473;52.286;20.930;2023-08-07T10:44:22;98938.94;;;24.20;46.00
30724;BME280;17473;52.286;20.930;2023-08-07T10:46:55;98946.53;;;24.90;44.84
30724;BME280;17473;52.286;20.930;2023-08-07T10:49:40;98954.03;;;25.03;44.95
30724;BME280;17473;52.286;20.930;2023-08-07T10:52:12;98948.69;;;25.20;44.52
30724;BME280;17473;52.286;20.930;2023-08-07T10:54:47;98938.53;;;25.25;44.58
30724;BME280;17473;52.286;20.930;2023-08-07T10:57:18;98936.78;;;25.43;44.71
30724;BME280;17473;52.286;20.930;2023-08-07T11:02:29;98945.47;;;25.68;42.76
30724;BME280;17473;52.286;20.930;2023-08-07T11:04:56;98937.94;;;25.01;43.38
30724;BME280;17473;52.286;20.930;2023-08-07T11:07:29;98949.56;;;25.21;43.14
30724;BME280;17473;52.286;20.930;2023-08-07T11:09:58;98949.91;;;25.32;43.37
30724;BME280;17473;52.286;20.930;2023-08-07T11:12:27;98947.69;;;25.59;43.01
30724;BME280;17473;52.286;20.930;2023-08-07T11:14:55;98956.78;;;25.57;42.69
30724;BME280;17473;52.286;20.930;2023-08-07T11:17:28;98964.72;;;25.42;43.14
30724;BME280;17473;52.286;20.930;2023-08-07T11:19:56;98957.25;;;25.47;41.99
30724;BME280;17473;52.286;20.930;2023-08-07T11:22:23;98965.22;;;25.51;41.89
30724;BME280;17473;52.286;20.930;2023-08-07T11:24:51;98967.72;;;25.73;40.99
30724;BME280;17473;52.286;20.930;2023-08-07T11:27:21;98970.47;;;25.35;41.36
30724;BME280;17473;52.286;20.930;2023-08-07T11:29:49;98968.25;;;25.62;41.20
30724;BME280;17473;52.286;20.930;2023-08-07T11:32:36;98959.72;;;25.52;41.58
30724;BME280;17473;52.286;20.930;2023-08-07T11:35:04;98964.66;;;25.44;41.72
30724;BME280;17473;52.286;20.930;2023-08-07T11:37:32;98958.03;;;25.13;41.77
30724;BME280;17473;52.286;20.930;2023-08-07T11:40:02;98954.31;;;25.15;41.84
30724;BME280;17473;52.286;20.930;2023-08-07T11:42:29;98952.56;;;25.14;42.39
30724;BME280;17473;52.286;20.930;2023-08-07T11:44:57;98949.28;;;25.27;41.62
30724;BME280;17473;52.286;20.930;2023-08-07T11:47:24;98948.13;;;24.94;42.14
30724;BME280;17473;52.286;20.930;2023-08-07T11:49:52;98946.59;;;24.89;42.06
30724;BME280;17473;52.286;20.930;2023-08-07T11:52:20;98946.13;;;25.17;42.11
30724;BME280;17473;52.286;20.930;2023-08-07T11:54:48;98955.91;;;25.20;43.53
30724;BME280;17473;52.286;20.930;2023-08-07T11:57:17;98952.03;;;25.25;42.81
30724;BME280;17473;52.286;20.930;2023-08-07T11:59:51;98956.09;;;25.34;43.39
30724;BME280;17473;52.286;20.930;2023-08-07T12:02:24;98960.47;;;25.00;43.43
30724;BME280;17473;52.286;20.930;2023-08-07T12:04:57;98972.91;;;24.83;43.83
30724;BME280;17473;52.286;20.930;2023-08-07T12:07:26;98982.31;;;24.56;44.93
30724;BME280;17473;52.286;20.930;2023-08-07T12:09:57;98984.09;;;24.55;43.85
30724;BME280;17473;52.286;20.930;2023-08-07T12:12:24;98978.47;;;24.41;44.95
30724;BME280;17473;52.286;20.930;2023-08-07T12:14:55;98982.09;;;24.20;45.78
30724;BME280;17473;52.286;20.930;2023-08-07T12:17:22;98980.66;;;23.69;46.98
30724;BME280;17473;52.286;20.930;2023-08-07T12:19:50;98988.53;;;23.53;47.62
30724;BME280;17473;52.286;20.930;2023-08-07T12:22:19;98997.03;;;23.42;47.58
30724;BME280;17473;52.286;20.930;2023-08-07T12:24:48;98985.56;;;23.14;48.51
30724;BME280;17473;52.286;20.930;2023-08-07T12:27:15;99005.41;;;22.88;48.19
30724;BME280;17473;52.286;20.930;2023-08-07T12:29:42;99012.53;;;22.89;49.86
30724;BME280;17473;52.286;20.930;2023-08-07T12:32:09;99022.84;;;23.02;48.15
30724;BME280;17473;52.286;20.930;2023-08-07T12:34:36;99029.47;;;23.15;48.41
30724;BME280;17473;52.286;20.930;2023-08-07T12:37:24;99024.59;;;23.49;48.64
30724;BME280;17473;52.286;20.930;2023-08-07T12:39:51;99024.94;;;23.84;47.81
30724;BME280;17473;52.286;20.930;2023-08-07T12:42:21;99035.91;;;23.79;47.27
30724;BME280;17473;52.286;20.930;2023-08-07T12:44:51;99023.69;;;23.92;46.85
30724;BME280;17473;52.286;20.930;2023-08-07T12:47:18;99021.88;;;24.34;45.99
30724;BME280;17473;52.286;20.930;2023-08-07T12:49:45;99034.81;;;24.26;47.08
30724;BME280;17473;52.286;20.930;2023-08-07T12:52:14;99026.00;;;24.22;46.86
30724;BME280;17473;52.286;20.930;2023-08-07T12:54:41;99036.06;;;24.40;46.93
30724;BME280;17473;52.286;20.930;2023-08-07T12:57:08;99035.63;;;24.07;45.40
30724;BME280;17473;52.286;20.930;2023-08-07T12:59:35;99034.59;;;23.89;45.11
30724;BME280;17473;52.286;20.930;2023-08-07T13:02:03;99041.72;;;23.90;44.78
30724;BME280;17473;52.286;20.930;2023-08-07T13:04:30;99037.97;;;23.72;43.65
30724;BME280;17473;52.286;20.930;2023-08-07T13:07:00;99043.63;;;23.66;45.60